Time;durP1;ratioP1;P1;durP2;ratioP2;P2;SDS_P1;SDS_P2;PMS_P1;PMS_P2;Temp;Humidity;BMP_temperature;BMP_pressure;BME280_temperature;BME280_humidity;BME280_pressure;Samples;Min_cycle;Max_cycle;Signal;HPM_P1;HPM_P2
2023/04/17 00:00:49;;;;;;;80.88;42.72;;;;;;;10.21;100.00;101865.72;5015427;28;20084;-64
2023/04/17 00:03:15;;;;;;;82.20;43.97;;;;;;;10.24;100.00;101872.63;5020421;28;20048;-64
2023/04/17 00:05:44;;;;;;;85.63;46.00;;;;;;;10.24;100.00;101865.75;4993694;28;20129;-65
2023/04/17 00:08:10;;;;;;;85.40;44.30;;;;;;;10.26;100.00;101870.94;5014392;28;20029;-64
2023/04/17 00:10:35;;;;;;;85.28;44.25;;;;;;;10.26;100.00;101872.66;5021752;28;20083;-64
2023/04/17 00:13:00;;;;;;;89.25;46.42;;;;;;;10.26;100.00;101867.50;5029336;28;20037;-64
2023/04/17 00:15:26;;;;;;;86.85;45.45;;;;;;;10.27;100.00;101864.06;5014616;28;20042;-64
2023/04/17 00:17:51;;;;;;;85.07;45.45;;;;;;;10.26;100.00;101867.50;5015504;28;20033;-65
2023/04/17 00:20:16;;;;;;;83.28;45.13;;;;;;;10.24;100.00;101859.72;5018729;28;20037;-66
2023/04/17 00:22:42;;;;;;;86.45;47.60;;;;;;;10.24;100.00;101865.75;5026448;28;20033;-64
2023/04/17 00:25:13;;;;;;;87.03;46.92;;;;;;;10.22;100.00;101856.25;5017510;28;20132;-65
2023/04/17 00:27:40;;;;;;;90.18;47.85;;;;;;;10.20;100.00;101856.25;5034258;28;20037;-65
2023/04/17 00:30:06;;;;;;;90.63;46.10;;;;;;;10.18;100.00;101849.31;5030625;28;20036;-64
2023/04/17 00:32:31;;;;;;;87.82;46.97;;;;;;;10.18;100.00;101855.34;5018510;28;20034;-64
2023/04/17 00:34:57;;;;;;;95.55;49.08;;;;;;;10.17;100.00;101853.63;5015949;28;20125;-64
2023/04/17 00:37:22;;;;;;;95.38;48.72;;;;;;;10.15;100.00;101847.56;5018958;28;20478;-65
2023/04/17 00:39:47;;;;;;;95.30;46.55;;;;;;;10.16;100.00;101853.59;5021144;28;20046;-67
2023/04/17 00:42:13;;;;;;;89.97;47.85;;;;;;;10.14;100.00;101856.19;5019550;28;20057;-65
2023/04/17 00:44:38;;;;;;;96.30;48.40;;;;;;;10.15;100.00;101855.31;5012993;28;20104;-64
2023/04/17 00:47:04;;;;;;;96.82;49.90;;;;;;;10.15;100.00;101852.72;5011845;28;20053;-64
2023/04/17 00:49:30;;;;;;;89.15;49.03;;;;;;;10.16;100.00;101848.44;5012704;28;20036;-64
2023/04/17 00:51:55;;;;;;;99.68;50.83;;;;;;;10.17;100.00;101857.94;5014501;28;20049;-65
2023/04/17 00:54:21;;;;;;;86.95;47.78;;;;;;;10.16;100.00;101845.84;5017280;28;20853;-65
2023/04/17 00:56:49;;;;;;;94.65;49.15;;;;;;;10.17;100.00;101852.78;5013905;28;20170;-65
2023/04/17 00:59:16;;;;;;;99.28;49.15;;;;;;;10.16;100.00;101848.44;5017445;28;20033;-65
2023/04/17 01:01:42;;;;;;;94.03;49.22;;;;;;;10.15;100.00;101852.72;5014924;28;20092;-65
2023/04/17 01:04:11;;;;;;;90.93;49.65;;;;;;;10.15;100.00;101849.28;5010716;28;20029;-65
2023/04/17 01:06:36;;;;;;;94.97;49.10;;;;;;;10.16;100.00;101845.84;5018033;28;20073;-64
2023/04/17 01:09:02;;;;;;;98.35;48.47;;;;;;;10.15;100.00;101839.81;5014174;28;20121;-65
2023/04/17 01:11:29;;;;;;;93.78;49.85;;;;;;;10.15;100.00;101844.97;5018806;28;20037;-65
2023/04/17 01:13:54;;;;;;;95.30;50.72;;;;;;;10.17;100.00;101845.88;5020013;28;20685;-64
2023/04/17 01:16:20;;;;;;;96.25;50.83;;;;;;;10.17;100.00;101851.06;5023733;28;20040;-65
2023/04/17 01:18:49;;;;;;;92.75;48.00;;;;;;;10.16;100.00;101849.31;5018043;28;21091;-65
2023/04/17 01:21:14;;;;;;;104.05;50.00;;;;;;;10.18;100.00;101846.72;5010558;28;20053;-65
2023/04/17 01:23:41;;;;;;;87.68;48.45;;;;;;;10.18;100.00;101847.59;5002897;28;20080;-65
2023/04/17 01:26:07;;;;;;;96.88;51.25;;;;;;;10.18;100.00;101846.72;5021095;28;21092;-65
2023/04/17 01:28:32;;;;;;;90.97;49.22;;;;;;;10.17;100.00;101848.47;5021951;28;20029;-66
2023/04/17 01:30:58;;;;;;;97.88;50.00;;;;;;;10.18;100.00;101845.03;5000494;28;20041;-65
2023/04/17 01:33:23;;;;;;;92.65;49.20;;;;;;;10.18;100.00;101849.31;5010656;28;20091;-64
2023/04/17 01:35:49;;;;;;;99.32;51.63;;;;;;;10.18;100.00;101846.72;5016079;28;20121;-65
2023/04/17 01:38:14;;;;;;;105.57;52.28;;;;;;;10.19;100.00;101844.19;5016821;28;20045;-65
2023/04/17 01:40:39;;;;;;;96.20;50.60;;;;;;;10.18;100.00;101844.16;5014256;28;20030;-65
2023/04/17 01:43:05;;;;;;;98.60;51.83;;;;;;;10.18;100.00;101850.19;5015275;28;20030;-65
2023/04/17 01:45:30;;;;;;;98.55;51.65;;;;;;;10.18;100.00;101845.03;5000120;28;20037;-65
2023/04/17 01:47:56;;;;;;;93.53;50.35;;;;;;;10.19;100.00;101840.72;5010569;28;20076;-66
2023/04/17 01:50:21;;;;;;;97.43;51.10;;;;;;;10.18;100.00;101838.97;5020005;28;20048;-65
2023/04/17 01:52:47;;;;;;;96.40;50.33;;;;;;;10.19;100.00;101849.34;5012766;28;20049;-65
2023/04/17 01:55:12;;;;;;;101.35;50.63;;;;;;;10.21;100.00;101847.63;4998115;28;20033;-65
2023/04/17 01:57:38;;;;;;;96.78;49.60;;;;;;;10.19;100.00;101849.34;5010306;28;20045;-65
2023/04/17 02:00:08;;;;;;;89.97;48.88;;;;;;;10.20;100.00;101851.09;5014819;28;20041;-65
2023/04/17 02:02:33;;;;;;;104.13;50.95;;;;;;;10.20;100.00;101845.94;5017268;28;20042;-65
2023/04/17 02:04:59;;;;;;;98.10;51.40;;;;;;;10.19;100.00;101844.19;5023376;28;20323;-65
2023/04/17 02:07:24;;;;;;;98.68;49.63;;;;;;;10.19;100.00;101846.75;5014570;28;20491;-66
2023/04/17 02:09:49;;;;;;;95.28;50.08;;;;;;;10.19;100.00;101854.50;5017470;28;20044;-65
2023/04/17 02:12:15;;;;;;;94.10;49.65;;;;;;;10.19;100.00;101849.34;5020406;28;20184;-65
2023/04/17 02:14:40;;;;;;;96.60;48.92;;;;;;;10.20;100.00;101848.50;5017742;28;20065;-65
2023/04/17 02:17:06;;;;;;;94.35;51.30;;;;;;;10.20;100.00;101847.63;5013629;28;20037;-65
2023/04/17 02:19:31;;;;;;;98.75;50.83;;;;;;;10.21;100.00;101847.63;5020329;28;20486;-65
2023/04/17 02:21:56;;;;;;;101.25;53.33;;;;;;;10.21;100.00;101850.22;5020157;28;20041;-65
2023/04/17 02:24:22;;;;;;;99.10;52.75;;;;;;;10.21;100.00;101851.94;5018404;28;20132;-65
2023/04/17 02:26:47;;;;;;;99.30;51.85;;;;;;;10.22;100.00;101840.75;5016677;28;20045;-65
2023/04/17 02:29:12;;;;;;;94.82;48.97;;;;;;;10.22;100.00;101851.09;5022333;28;20490;-65
2023/04/17 02:31:40;;;;;;;97.40;49.80;;;;;;;10.22;100.00;101848.50;5016302;28;20592;-66
2023/04/17 02:34:05;;;;;;;106.47;52.10;;;;;;;10.22;100.00;101851.09;5015878;28;20187;-65
2023/04/17 02:36:31;;;;;;;93.22;47.63;;;;;;;10.21;100.00;101846.75;5015432;28;20518;-66
2023/04/17 02:38:56;;;;;;;98.05;50.70;;;;;;;10.21;100.00;101847.63;5020176;28;20044;-66
2023/04/17 02:41:21;;;;;;;96.35;50.25;;;;;;;10.22;100.00;101840.75;5031844;28;20128;-66
2023/04/17 02:43:47;;;;;;;101.68;53.05;;;;;;;10.22;100.00;101839.03;5020893;28;20025;-65
2023/04/17 02:46:12;;;;;;;98.00;50.08;;;;;;;10.21;100.00;101845.06;5021452;28;20029;-66
2023/04/17 02:48:38;;;;;;;98.80;51.63;;;;;;;10.22;100.00;101844.22;5012510;28;20093;-65
2023/04/17 02:51:03;;;;;;;102.13;51.13;;;;;;;10.22;100.00;101841.63;5019790;28;20087;-65
2023/04/17 02:53:29;;;;;;;103.05;52.05;;;;;;;10.21;100.00;101845.06;5019341;28;20049;-65
2023/04/17 02:55:54;;;;;;;99.85;51.25;;;;;;;10.21;100.00;101842.47;5020431;28;20040;-65
2023/04/17 02:58:19;;;;;;;104.22;51.42;;;;;;;10.20;100.00;101842.47;5019051;28;20049;-66
2023/04/17 03:00:45;;;;;;;102.50;53.30;;;;;;;10.21;100.00;101842.47;5032187;28;20042;-65
2023/04/17 03:03:10;;;;;;;93.32;51.35;;;;;;;10.21;100.00;101842.47;5014697;28;20034;-66
2023/04/17 03:05:36;;;;;;;96.20;49.63;;;;;;;10.22;100.00;101843.34;5030414;28;20056;-65
2023/04/17 03:08:01;;;;;;;103.82;53.17;;;;;;;10.22;100.00;101838.16;5035240;28;20203;-65
2023/04/17 03:10:26;;;;;;;100.00;52.70;;;;;;;10.22;100.00;101846.78;5016897;28;20086;-65
2023/04/17 03:12:52;;;;;;;99.53;52.83;;;;;;;10.24;100.00;101845.09;5022832;28;20044;-65
2023/04/17 03:15:18;;;;;;;95.13;49.33;;;;;;;10.23;100.00;101838.19;5021929;28;20128;-66
2023/04/17 03:17:43;;;;;;;92.82;50.47;;;;;;;10.23;100.00;101848.53;5023533;28;20045;-66
2023/04/17 03:20:09;;;;;;;97.50;51.53;;;;;;;10.23;100.00;101838.19;5025972;28;20038;-65
2023/04/17 03:22:35;;;;;;;92.03;49.03;;;;;;;10.23;100.00;101839.91;5021054;28;20056;-65
2023/04/17 03:25:00;;;;;;;98.70;50.97;;;;;;;10.24;100.00;101841.63;5020246;28;20037;-66
2023/04/17 03:27:26;;;;;;;87.22;50.03;;;;;;;10.23;100.00;101840.78;5020525;28;20040;-65
2023/04/17 03:29:53;;;;;;;102.63;52.60;;;;;;;10.23;100.00;101845.97;5015523;28;20091;-65
2023/04/17 03:32:18;;;;;;;93.65;49.33;;;;;;;10.25;100.00;101848.53;5016964;28;20271;-66
2023/04/17 03:34:44;;;;;;;92.88;49.25;;;;;;;10.26;100.00;101845.13;5019965;28;20743;-67
2023/04/17 03:37:10;;;;;;;93.82;50.38;;;;;;;10.27;100.00;101845.97;5014620;28;20484;-65
2023/04/17 03:39:35;;;;;;;88.00;49.72;;;;;;;10.27;100.00;101841.66;5015314;28;20084;-66
2023/04/17 03:42:01;;;;;;;88.53;47.33;;;;;;;10.27;100.00;101848.56;5021201;28;20120;-65
2023/04/17 03:44:26;;;;;;;92.60;50.35;;;;;;;10.29;100.00;101846.84;5024894;28;20040;-65
2023/04/17 03:46:51;;;;;;;94.85;49.10;;;;;;;10.28;100.00;101850.28;5029366;28;20053;-65
2023/04/17 03:49:17;;;;;;;90.90;50.25;;;;;;;10.29;100.00;101849.44;5020586;28;20394;-65
2023/04/17 03:51:42;;;;;;;93.70;50.13;;;;;;;10.29;100.00;101849.44;5004200;28;20498;-65
2023/04/17 03:54:08;;;;;;;94.93;49.25;;;;;;;10.30;100.00;101843.44;5004969;28;20132;-66
2023/04/17 03:56:33;;;;;;;91.60;51.20;;;;;;;10.31;100.00;101847.72;5019750;28;20087;-66
2023/04/17 03:58:59;;;;;;;91.22;51.38;;;;;;;10.31;100.00;101847.72;5014616;28;20033;-66
2023/04/17 04:01:27;;;;;;;88.68;50.25;;;;;;;10.29;100.00;101845.16;5012767;28;20034;-67
2023/04/17 04:03:53;;;;;;;93.07;50.20;;;;;;;10.30;100.00;101851.19;5019557;28;20586;-65
2023/04/17 04:06:19;;;;;;;91.65;50.75;;;;;;;10.30;100.00;101848.59;5016960;28;20334;-66
2023/04/17 04:08:45;;;;;;;87.43;48.08;;;;;;;10.32;100.00;101850.34;5007820;28;20769;-66
2023/04/17 04:11:10;;;;;;;85.38;47.97;;;;;;;10.30;100.00;101843.44;5001969;28;20053;-66
2023/04/17 04:13:35;;;;;;;87.28;49.03;;;;;;;10.30;100.00;101851.19;5020439;28;20372;-66
2023/04/17 04:16:01;;;;;;;86.45;48.33;;;;;;;10.32;100.00;101857.22;5021741;28;20674;-66
2023/04/17 04:18:26;;;;;;;87.68;48.40;;;;;;;10.29;100.00;101846.84;5008740;28;20046;-67
2023/04/17 04:20:51;;;;;;;82.70;47.55;;;;;;;10.29;100.00;101847.72;5026043;28;20051;-67
2023/04/17 04:23:19;;;;;;;92.78;48.28;;;;;;;10.31;100.00;101850.31;5026949;28;20033;-66
2023/04/17 04:25:45;;;;;;;85.10;48.47;;;;;;;10.28;100.00;101847.69;5019091;28;20037;-66
2023/04/17 04:28:12;;;;;;;83.20;48.35;;;;;;;10.28;100.00;101845.97;5025650;28;20021;-66
2023/04/17 04:30:37;;;;;;;89.00;49.42;;;;;;;10.26;100.00;101852.88;5029893;28;20037;-66
2023/04/17 04:33:04;;;;;;;83.43;48.17;;;;;;;10.26;100.00;101857.16;5024454;28;20057;-67
2023/04/17 04:35:30;;;;;;;81.75;47.17;;;;;;;10.26;100.00;101863.19;5016053;28;20045;-67
2023/04/17 04:38:00;;;;;;;91.93;49.88;;;;;;;10.24;100.00;101867.47;5023256;28;20029;-66
2023/04/17 04:40:26;;;;;;;95.40;50.00;;;;;;;10.23;100.00;101865.75;5019711;28;20025;-66
2023/04/17 04:42:52;;;;;;;80.43;46.58;;;;;;;10.23;100.00;101860.59;5018543;28;20040;-66
2023/04/17 04:45:17;;;;;;;85.18;48.40;;;;;;;10.26;100.00;101867.50;5028160;28;20112;-66
2023/04/17 04:47:43;;;;;;;82.03;47.08;;;;;;;10.24;100.00;101868.34;5016196;28;20184;-67
2023/04/17 04:50:08;;;;;;;88.05;46.40;;;;;;;10.22;100.00;101872.63;5016017;28;20625;-66
2023/04/17 04:52:34;;;;;;;75.88;45.58;;;;;;;10.23;100.00;101866.63;5038416;28;20029;-67
2023/04/17 04:55:00;;;;;;;78.55;44.80;;;;;;;10.22;100.00;101870.06;5018630;28;20437;-66
2023/04/17 04:57:25;;;;;;;85.25;47.60;;;;;;;10.21;100.00;101875.19;5024686;28;20044;-66
2023/04/17 04:59:51;;;;;;;80.03;47.42;;;;;;;10.19;100.00;101874.31;5019414;28;20034;-67
2023/04/17 05:02:16;;;;;;;76.88;45.22;;;;;;;10.19;100.00;101879.47;5011578;28;20702;-66
2023/04/17 05:04:42;;;;;;;79.10;45.22;;;;;;;10.19;100.00;101880.34;5018278;28;20041;-66
2023/04/17 05:07:07;;;;;;;83.03;45.22;;;;;;;10.18;100.00;101873.44;5015919;28;20438;-67
2023/04/17 05:09:34;;;;;;;78.30;45.72;;;;;;;10.19;100.00;101879.47;5018008;28;20053;-67
2023/04/17 05:12:00;;;;;;;74.38;43.33;;;;;;;10.19;100.00;101884.66;5020770;28;20685;-66
2023/04/17 05:14:25;;;;;;;77.53;46.55;;;;;;;10.18;99.52;101881.19;5022471;28;20055;-66
2023/04/17 05:16:50;;;;;;;77.90;44.00;;;;;;;10.19;99.42;101884.66;5025328;28;20033;-66
2023/04/17 05:19:16;;;;;;;72.82;41.92;;;;;;;10.19;99.34;101889.81;5028095;28;20083;-67
2023/04/17 05:21:41;;;;;;;72.65;44.40;;;;;;;10.17;99.47;101884.66;5020545;28;20414;-67
2023/04/17 05:24:07;;;;;;;72.72;44.80;;;;;;;10.18;99.36;101882.91;5020979;28;20067;-67
2023/04/17 05:26:32;;;;;;;79.38;45.40;;;;;;;10.17;99.81;101891.53;5011545;28;20045;-66
2023/04/17 05:28:57;;;;;;;67.43;41.38;;;;;;;10.16;99.35;101888.06;5018970;28;20033;-67
2023/04/17 05:31:23;;;;;;;68.78;44.28;;;;;;;10.19;97.79;101895.84;5021682;28;20030;-67
2023/04/17 05:33:48;;;;;;;73.63;42.78;;;;;;;10.20;98.49;101894.13;5023992;28;20411;-67
2023/04/17 05:36:13;;;;;;;74.82;43.55;;;;;;;10.17;98.04;101894.97;5016971;28;20041;-67
2023/04/17 05:38:39;;;;;;;64.32;41.00;;;;;;;10.20;98.17;101896.72;5011038;28;20038;-67
2023/04/17 05:41:06;;;;;;;71.10;42.88;;;;;;;10.18;98.31;101895.81;5000998;28;20041;-67
2023/04/17 05:43:31;;;;;;;65.88;42.03;;;;;;;10.18;98.10;101899.28;5018569;28;20398;-67
2023/04/17 05:45:57;;;;;;;67.57;41.10;;;;;;;10.18;98.38;101907.03;5015880;28;20033;-67
2023/04/17 05:48:22;;;;;;;71.95;40.95;;;;;;;10.16;98.15;101906.16;5014017;28;20034;-67
2023/04/17 05:50:48;;;;;;;63.13;39.28;;;;;;;10.17;98.01;101904.44;5015758;28;20116;-68
2023/04/17 05:53:13;;;;;;;62.60;39.38;;;;;;;10.14;98.24;101907.00;5021788;28;20048;-67
2023/04/17 05:55:39;;;;;;;60.13;39.00;;;;;;;10.15;97.82;101901.81;5024906;28;20045;-67
2023/04/17 05:58:04;;;;;;;64.47;39.20;;;;;;;10.15;97.84;101904.41;5018511;28;20052;-67
2023/04/17 06:00:29;;;;;;;64.70;39.35;;;;;;;10.16;97.17;101900.13;5018900;28;20778;-66
2023/04/17 06:02:55;;;;;;;66.82;38.28;;;;;;;10.15;97.60;101912.16;5026068;28;20037;-67
2023/04/17 06:05:21;;;;;;;69.28;41.15;;;;;;;10.17;97.47;101907.03;5011674;28;20334;-66
2023/04/17 06:07:47;;;;;;;59.75;37.47;;;;;;;10.17;96.83;101915.66;5017743;28;20034;-66
2023/04/17 06:10:13;;;;;;;57.45;35.65;;;;;;;10.19;98.11;101916.53;5026665;28;20035;-67
2023/04/17 06:12:38;;;;;;;61.38;37.90;;;;;;;10.22;96.91;101916.56;5030333;28;20051;-66
2023/04/17 06:15:05;;;;;;;59.35;36.20;;;;;;;10.24;95.89;101913.97;5025651;28;20036;-67
2023/04/17 06:17:30;;;;;;;56.38;36.80;;;;;;;10.27;96.04;101913.16;5017172;28;20046;-68
2023/04/17 06:19:56;;;;;;;54.97;35.72;;;;;;;10.31;95.35;101913.22;5021026;28;20059;-66
2023/04/17 06:22:21;;;;;;;60.85;36.05;;;;;;;10.39;94.97;101916.72;5031252;28;20024;-67
2023/04/17 06:24:47;;;;;;;50.80;34.47;;;;;;;10.50;94.58;101922.03;5012768;28;20048;-68
2023/04/17 06:27:12;;;;;;;56.78;35.45;;;;;;;10.64;94.83;101917.84;5016948;28;20033;-69
2023/04/17 06:29:38;;;;;;;52.22;32.55;;;;;;;10.66;92.14;101924.78;5015817;28;20041;-67
2023/04/17 06:32:04;;;;;;;51.30;32.50;;;;;;;10.71;91.65;101922.25;5017190;28;20033;-67
2023/04/17 06:34:30;;;;;;;53.10;34.42;;;;;;;10.75;93.20;101937.78;5016934;28;20033;-67
2023/04/17 06:36:55;;;;;;;53.83;34.17;;;;;;;10.79;92.67;101933.53;5017501;28;20098;-67
2023/04/17 06:39:21;;;;;;;48.13;31.25;;;;;;;10.78;92.52;101940.41;5022477;28;20044;-67
2023/04/17 06:41:47;;;;;;;47.47;31.02;;;;;;;10.75;91.98;101937.78;5016163;28;20518;-67
2023/04/17 06:44:13;;;;;;;45.55;30.23;;;;;;;10.72;90.91;101940.34;5015637;28;20047;-68
2023/04/17 06:46:38;;;;;;;50.42;32.10;;;;;;;10.77;92.05;101943.00;5013150;28;20098;-69
2023/04/17 06:49:03;;;;;;;49.60;32.10;;;;;;;10.84;92.34;101941.31;5016437;28;20065;-68
2023/04/17 06:51:29;;;;;;;50.35;31.15;;;;;;;10.83;90.93;101943.06;5022561;28;20029;-68
2023/04/17 06:53:54;;;;;;;51.40;33.03;;;;;;;10.82;91.18;101943.91;5026524;28;20202;-67
2023/04/17 06:56:20;;;;;;;48.63;31.17;;;;;;;10.82;92.15;101941.31;5013405;28;20045;-67
2023/04/17 06:58:46;;;;;;;47.72;30.65;;;;;;;10.85;91.75;101948.22;5011556;28;20041;-67
2023/04/17 07:01:12;;;;;;;45.60;31.17;;;;;;;10.85;91.64;101949.09;5010937;28;20034;-68
2023/04/17 07:03:39;;;;;;;46.42;29.95;;;;;;;10.80;89.87;101949.03;5013723;28;20096;-67
2023/04/17 07:06:04;;;;;;;44.22;28.85;;;;;;;10.81;90.15;101947.31;5014433;28;20081;-68
2023/04/17 07:08:30;;;;;;;46.35;30.67;;;;;;;10.81;89.63;101952.50;5023256;28;20041;-68
2023/04/17 07:10:55;;;;;;;45.70;30.42;;;;;;;10.81;89.71;101952.50;5014005;28;20036;-67
2023/04/17 07:13:21;;;;;;;43.80;29.88;;;;;;;10.83;90.42;101968.03;5013017;28;20095;-68
2023/04/17 07:15:53;;;;;;;45.47;30.83;;;;;;;10.83;90.09;101965.47;5015140;28;20786;-68
2023/04/17 07:18:20;;;;;;;46.58;28.83;;;;;;;10.79;90.90;101962.84;5017790;28;20045;-67
2023/04/17 07:20:46;;;;;;;47.55;30.58;;;;;;;10.79;90.86;101965.44;5017703;28;20029;-68
2023/04/17 07:23:11;;;;;;;49.53;31.50;;;;;;;10.77;89.85;101974.03;5017444;28;20052;-68
2023/04/17 07:25:37;;;;;;;41.58;27.13;;;;;;;10.75;90.08;101974.00;5012065;28;20451;-68
2023/04/17 07:28:02;;;;;;;40.80;27.77;;;;;;;10.78;89.37;101973.16;5005235;28;20088;-69
2023/04/17 07:30:28;;;;;;;43.88;28.88;;;;;;;10.80;nan;101971.47;5019060;28;20099;-69
2023/04/17 07:32:53;;;;;;;48.00;32.67;;;;;;;10.83;89.29;101978.38;5011135;28;20144;-69
2023/04/17 07:35:19;;;;;;;48.67;31.88;;;;;;;10.84;88.04;101980.97;5016168;28;20049;-68
2023/04/17 07:37:44;;;;;;;43.10;29.13;;;;;;;10.89;87.86;101984.47;5027241;28;20052;-68
2023/04/17 07:40:10;;;;;;;41.42;28.02;;;;;;;10.98;87.24;101979.38;5028480;28;20018;-69
2023/04/17 07:42:36;;;;;;;43.90;29.23;;;;;;;11.15;86.64;101976.97;5036048;28;20041;-69
2023/04/17 07:45:02;;;;;;;42.22;27.10;;;;;;;11.25;85.75;101982.22;5033540;28;20045;-69
2023/04/17 07:47:27;;;;;;;40.53;27.10;;;;;;;11.34;85.03;101982.28;5018335;28;20506;-68
2023/04/17 07:49:52;;;;;;;38.90;27.63;;;;;;;11.48;83.94;101985.03;5021466;28;20060;-68
2023/04/17 07:52:18;;;;;;;47.38;26.52;;;;;;;11.61;83.59;101976.47;5016955;28;20029;-69
2023/04/17 07:54:43;;;;;;;39.45;25.92;;;;;;;11.67;83.51;101986.00;5018065;28;20141;-69
2023/04/17 07:57:10;;;;;;;41.42;26.65;;;;;;;11.73;82.60;101983.47;5017683;28;20050;-67
2023/04/17 07:59:35;;;;;;;38.22;26.40;;;;;;;11.72;82.44;101985.19;5015409;28;20172;-69
2023/04/17 08:02:02;;;;;;;39.90;27.35;;;;;;;11.79;81.74;101983.50;5016441;28;20117;-69
2023/04/17 08:04:27;;;;;;;41.65;26.52;;;;;;;11.97;82.03;101990.50;5018839;28;20025;-68
2023/04/17 08:06:53;;;;;;;40.28;25.58;;;;;;;12.08;82.73;101989.69;5023771;28;20029;-68
2023/04/17 08:09:20;;;;;;;36.75;25.08;;;;;;;12.13;80.58;101988.03;5019518;28;20037;-68
2023/04/17 08:11:45;;;;;;;39.35;25.90;;;;;;;12.14;80.45;101984.53;5018130;28;20040;-69
2023/04/17 08:14:11;;;;;;;36.33;25.20;;;;;;;12.03;80.96;101994.00;5022651;28;20402;-68
2023/04/17 08:16:36;;;;;;;36.72;24.63;;;;;;;12.13;80.21;101990.63;5016029;28;20529;-69
2023/04/17 08:19:02;;;;;;;33.90;22.92;;;;;;;12.11;79.83;101986.28;5021726;28;20127;-68
2023/04/17 08:21:27;;;;;;;34.92;23.67;;;;;;;12.10;79.53;101990.59;5027964;28;20040;-68
2023/04/17 08:23:52;;;;;;;35.35;23.17;;;;;;;12.19;78.27;101987.19;5019930;28;20517;-70
2023/04/17 08:26:19;;;;;;;32.22;23.23;;;;;;;12.26;79.15;101988.91;5020031;28;20042;-68
2023/04/17 08:28:45;;;;;;;32.53;22.98;;;;;;;12.57;78.63;101987.31;5020230;28;20033;-68
2023/04/17 08:31:11;;;;;;;32.78;23.75;;;;;;;13.04;78.96;101983.13;5019226;28;20048;-68
2023/04/17 08:33:36;;;;;;;33.65;23.23;;;;;;;13.23;75.60;101968.41;5018711;28;20131;-68
2023/04/17 08:36:01;;;;;;;34.55;22.17;;;;;;;13.21;75.13;101967.53;5015063;28;20110;-68
2023/04/17 08:38:29;;;;;;;34.17;23.02;;;;;;;13.21;75.58;101976.19;5014941;28;20041;-68
2023/04/17 08:40:58;;;;;;;34.13;22.80;;;;;;;13.17;76.54;101982.28;5018614;28;20122;-68
2023/04/17 08:43:27;;;;;;;29.17;19.58;;;;;;;13.11;73.84;101956.31;5014331;28;20657;-68
2023/04/17 08:45:54;;;;;;;27.38;18.70;;;;;;;13.00;73.93;101961.47;5016018;28;20022;-69
2023/04/17 08:48:20;;;;;;;30.23;20.88;;;;;;;12.96;74.71;101974.44;5015102;28;20033;-69
2023/04/17 08:50:48;;;;;;;30.90;20.85;;;;;;;13.09;74.42;101971.00;5019024;28;20112;-68
2023/04/17 08:53:14;;;;;;;29.30;21.00;;;;;;;13.17;76.01;101987.47;5021252;28;20042;-68
2023/04/17 08:55:39;;;;;;;32.33;21.00;;;;;;;13.32;73.62;101961.50;5011912;28;20034;-69
2023/04/17 08:58:06;;;;;;;27.13;20.02;;;;;;;13.39;73.56;101967.53;5016257;28;20046;-69
2023/04/17 09:00:37;;;;;;;29.17;20.52;;;;;;;13.40;73.37;101974.47;5018155;28;20044;-68
2023/04/17 09:03:12;;;;;;;30.25;17.65;;;;;;;13.36;72.41;101952.81;5022622;28;20060;-68
2023/04/17 09:05:41;;;;;;;26.05;18.38;;;;;;;13.58;72.55;101953.66;5020296;28;20033;-66
2023/04/17 09:08:22;;;;;;;27.77;18.75;;;;;;;13.70;72.01;101951.03;5012562;28;20030;-65
2023/04/17 09:10:50;;;;;;;22.10;17.00;;;;;;;13.81;71.78;101953.59;5020020;28;20033;-69
2023/04/17 09:13:18;;;;;;;20.88;16.02;;;;;;;13.92;71.49;101951.88;5022704;28;20025;-68
2023/04/17 09:15:45;;;;;;;22.00;15.73;;;;;;;13.92;70.39;101942.31;5022975;28;20041;-69
2023/04/17 09:18:29;;;;;;;21.60;15.25;;;;;;;13.89;71.18;101946.69;5011384;28;20030;-69
2023/04/17 09:20:56;;;;;;;22.00;15.05;;;;;;;13.59;70.41;101946.75;5008991;28;20477;-70
2023/04/17 09:23:22;;;;;;;22.10;15.65;;;;;;;13.62;71.25;101950.22;5022272;28;20029;-70
2023/04/17 09:26:08;;;;;;;22.80;15.50;;;;;;;13.78;70.93;101951.88;5019149;28;20368;-69
2023/04/17 09:28:40;;;;;;;20.33;15.13;;;;;;;13.91;70.02;101938.00;5015649;28;20702;-69
2023/04/17 09:31:14;;;;;;;20.75;15.27;;;;;;;13.93;70.30;101944.03;5014277;28;20453;-69
2023/04/17 09:33:55;;;;;;;23.17;14.02;;;;;;;14.18;68.80;101929.22;5003293;28;20939;-69
2023/04/17 09:36:21;;;;;;;20.65;13.63;;;;;;;14.45;67.63;101903.09;5009379;28;20817;-70
2023/04/17 09:38:46;;;;;;;17.90;12.65;;;;;;;14.78;65.70;101864.69;5018716;28;20069;-69
2023/04/17 09:41:32;;;;;;;19.58;13.52;;;;;;;14.86;65.45;101875.91;5016698;28;20037;-70
2023/04/17 09:44:05;;;;;;;15.65;11.63;;;;;;;14.71;63.32;101817.03;5016121;28;20029;-69
2023/04/17 09:46:44;;;;;;;16.80;11.63;;;;;;;14.50;63.92;101835.41;5022066;28;20029;-69
2023/04/17 09:49:21;;;;;;;18.05;11.85;;;;;;;14.61;63.61;101844.88;4993195;28;20080;-70
2023/04/17 09:51:48;;;;;;;18.05;12.48;;;;;;;14.62;63.58;101843.13;5021024;28;20049;-70
2023/04/17 09:54:14;;;;;;;16.42;12.43;;;;;;;15.16;62.59;101815.75;5013275;28;20037;-70
2023/04/17 09:56:40;;;;;;;18.02;11.75;;;;;;;15.14;61.67;101791.44;5015881;28;20060;-69
2023/04/17 09:59:06;;;;;;;16.85;11.43;;;;;;;15.03;61.96;101814.13;5012724;28;20041;-69
2023/04/17 10:01:33;;;;;;;14.70;11.73;;;;;;;14.75;62.21;101817.88;5019684;28;20038;-69
2023/04/17 10:04:00;;;;;;;16.75;11.23;;;;;;;14.68;62.65;101835.28;5014842;28;20052;-69
2023/04/17 10:06:26;;;;;;;14.70;11.48;;;;;;;14.77;61.53;101808.31;5016587;28;20041;-69
2023/04/17 10:08:51;;;;;;;13.55;10.23;;;;;;;14.62;60.90;101783.28;5022912;28;20041;-70
2023/04/17 10:11:18;;;;;;;14.52;10.77;;;;;;;14.48;61.65;101814.59;5016230;28;20513;-69
2023/04/17 10:13:48;;;;;;;15.48;11.52;;;;;;;14.73;63.94;101862.13;5012791;28;20665;-69
2023/04/17 10:16:13;;;;;;;19.00;11.75;;;;;;;15.01;62.23;101821.09;5013805;28;20112;-70
2023/04/17 10:18:39;;;;;;;18.70;13.13;;;;;;;15.13;61.56;101803.63;5015514;28;20645;-70
2023/04/17 10:21:22;;;;;;;18.67;13.57;;;;;;;15.12;61.17;101793.19;5017163;28;20045;-69
2023/04/17 10:23:48;;;;;;;17.73;11.50;;;;;;;14.93;60.13;101778.66;5017638;28;20724;-69
2023/04/17 10:26:33;;;;;;;16.17;9.98;;;;;;;14.81;59.19;101766.59;5007180;28;20037;-69
2023/04/17 10:28:58;;;;;;;;;;;;;;;14.82;59.94;101776.16;5011146;28;20032;-69
2023/04/17 10:32:02;;;;;;;14.27;10.73;;;;;;;14.58;60.38;101782.44;5030401;28;19921;-69
2023/04/17 10:34:37;;;;;;;18.13;11.90;;;;;;;14.84;60.79;101787.41;5015989;28;20048;-69
2023/04/17 10:37:03;;;;;;;17.00;11.15;;;;;;;15.06;58.89;101755.06;5024998;28;20038;-69
2023/04/17 10:39:55;;;;;;;14.25;10.90;;;;;;;15.01;59.34;101756.00;5018095;28;20061;-69
2023/04/17 10:42:22;;;;;;;16.95;12.05;;;;;;;14.82;60.39;101783.09;5017328;28;20503;-69
2023/04/17 10:44:49;;;;;;;15.82;11.80;;;;;;;14.60;59.68;101780.69;5023900;28;20037;-68
2023/04/17 10:47:19;;;;;;;16.70;10.98;;;;;;;14.55;59.94;101784.19;5016710;28;20398;-70
2023/04/17 10:49:53;;;;;;;18.10;10.88;;;;;;;14.62;61.80;101817.13;5018157;28;20068;-69
2023/04/17 10:52:34;;;;;;;16.10;9.80;;;;;;;14.62;61.07;101806.69;5018744;28;20029;-69
2023/04/17 10:55:15;;;;;;;15.25;9.98;;;;;;;14.68;60.26;101784.97;5012379;28;20851;-69
2023/04/17 10:58:10;;;;;;;16.38;9.82;;;;;;;14.63;58.19;101733.81;5010946;28;20041;-69
2023/04/17 11:00:47;;;;;;;13.63;9.23;;;;;;;14.73;58.34;101741.53;5013673;28;20043;-68
2023/04/17 11:03:14;;;;;;;15.30;9.88;;;;;;;14.88;57.13;101716.22;5011498;28;20034;-67
2023/04/17 11:05:45;;;;;;;15.45;9.18;;;;;;;14.92;58.95;101762.19;5015429;28;20365;-69